sensor_id;sensor_type;location;lat;lon;timestamp;P1;durP1;ratioP1;P2;durP2;ratioP2
12912;SDS011;6524;51.368;11.984;2022-10-31T00:02:29;11.75;;;8.60;;
12912;SDS011;6524;51.368;11.984;2022-10-31T00:07:30;11.98;;;8.77;;
12912;SDS011;6524;51.368;11.984;2022-10-31T00:12:30;12.52;;;8.38;;
12912;SDS011;6524;51.368;11.984;2022-10-31T00:17:30;10.95;;;8.68;;
12912;SDS011;6524;51.368;11.984;2022-10-31T00:22:31;12.63;;;8.60;;
12912;SDS011;6524;51.368;11.984;2022-10-31T00:27:31;9.77;;;8.50;;
12912;SDS011;6524;51.368;11.984;2022-10-31T00:32:31;10.73;;;8.07;;
12912;SDS011;6524;51.368;11.984;2022-10-31T00:37:32;11.88;;;8.63;;
12912;SDS011;6524;51.368;11.984;2022-10-31T00:42:32;12.73;;;8.60;;
12912;SDS011;6524;51.368;11.984;2022-10-31T00:47:32;10.02;;;7.78;;
12912;SDS011;6524;51.368;11.984;2022-10-31T00:52:33;9.85;;;6.82;;
12912;SDS011;6524;51.368;11.984;2022-10-31T00:57:33;22.98;;;16.20;;
12912;SDS011;6524;51.368;11.984;2022-10-31T01:02:34;17.83;;;13.30;;
12912;SDS011;6524;51.368;11.984;2022-10-31T01:07:38;12.10;;;8.32;;
12912;SDS011;6524;51.368;11.984;2022-10-31T01:12:40;9.40;;;7.25;;
12912;SDS011;6524;51.368;11.984;2022-10-31T01:17:42;11.73;;;7.00;;
12912;SDS011;6524;51.368;11.984;2022-10-31T01:22:43;10.73;;;7.18;;
12912;SDS011;6524;51.368;11.984;2022-10-31T01:27:43;10.98;;;7.15;;
12912;SDS011;6524;51.368;11.984;2022-10-31T01:32:44;9.77;;;6.90;;
12912;SDS011;6524;51.368;11.984;2022-10-31T01:37:44;11.82;;;6.97;;
12912;SDS011;6524;51.368;11.984;2022-10-31T05:03:44;10.73;;;6.10;;
12912;SDS011;6524;51.368;11.984;2022-10-31T05:08:44;7.00;;;6.03;;
12912;SDS011;6524;51.368;11.984;2022-10-31T05:13:45;7.80;;;6.03;;
12912;SDS011;6524;51.368;11.984;2022-10-31T05:18:45;8.55;;;6.35;;
12912;SDS011;6524;51.368;11.984;2022-10-31T05:23:49;9.63;;;6.88;;
12912;SDS011;6524;51.368;11.984;2022-10-31T05:28:52;7.70;;;5.72;;
12912;SDS011;6524;51.368;11.984;2022-10-31T05:33:53;9.50;;;6.03;;
12912;SDS011;6524;51.368;11.984;2022-10-31T05:38:53;8.93;;;6.40;;
12912;SDS011;6524;51.368;11.984;2022-10-31T05:43:54;7.53;;;6.38;;
12912;SDS011;6524;51.368;11.984;2022-10-31T05:54:47;9.60;;;6.80;;
12912;SDS011;6524;51.368;11.984;2022-10-31T06:00:04;8.48;;;6.80;;
12912;SDS011;6524;51.368;11.984;2022-10-31T06:05:49;8.82;;;6.38;;
12912;SDS011;6524;51.368;11.984;2022-10-31T06:10:50;10.38;;;7.28;;
12912;SDS011;6524;51.368;11.984;2022-10-31T06:15:53;7.65;;;5.90;;
12912;SDS011;6524;51.368;11.984;2022-10-31T06:20:53;10.02;;;6.50;;
12912;SDS011;6524;51.368;11.984;2022-10-31T06:25:53;13.85;;;6.78;;
12912;SDS011;6524;51.368;11.984;2022-10-31T06:30:55;7.55;;;6.22;;
12912;SDS011;6524;51.368;11.984;2022-10-31T06:35:55;8.10;;;6.43;;
12912;SDS011;6524;51.368;11.984;2022-10-31T06:40:56;7.80;;;6.22;;
12912;SDS011;6524;51.368;11.984;2022-10-31T06:45:56;8.40;;;5.75;;
12912;SDS011;6524;51.368;11.984;2022-10-31T06:50:57;6.72;;;5.80;;
12912;SDS011;6524;51.368;11.984;2022-10-31T06:56:18;7.50;;;5.70;;
12912;SDS011;6524;51.368;11.984;2022-10-31T07:01:59;7.32;;;5.88;;
12912;SDS011;6524;51.368;11.984;2022-10-31T07:07:04;8.80;;;5.95;;
12912;SDS011;6524;51.368;11.984;2022-10-31T07:12:05;7.45;;;5.82;;
12912;SDS011;6524;51.368;11.984;2022-10-31T07:17:05;9.00;;;6.07;;
12912;SDS011;6524;51.368;11.984;2022-10-31T07:22:06;8.15;;;6.35;;
12912;SDS011;6524;51.368;11.984;2022-10-31T07:27:06;8.70;;;6.55;;
12912;SDS011;6524;51.368;11.984;2022-10-31T07:32:10;6.80;;;6.07;;
12912;SDS011;6524;51.368;11.984;2022-10-31T07:42:54;12.35;;;6.47;;
12912;SDS011;6524;51.368;11.984;2022-10-31T07:47:57;8.65;;;7.10;;
12912;SDS011;6524;51.368;11.984;2022-10-31T07:53:05;10.65;;;7.18;;
12912;SDS011;6524;51.368;11.984;2022-10-31T08:09:41;10.07;;;6.78;;
12912;SDS011;6524;51.368;11.984;2022-10-31T08:20:20;10.15;;;6.95;;
12912;SDS011;6524;51.368;11.984;2022-10-31T08:25:21;8.43;;;6.50;;
12912;SDS011;6524;51.368;11.984;2022-10-31T08:30:24;11.73;;;7.35;;
12912;SDS011;6524;51.368;11.984;2022-10-31T08:35:27;9.35;;;7.60;;
12912;SDS011;6524;51.368;11.984;2022-10-31T08:40:28;9.73;;;7.80;;
12912;SDS011;6524;51.368;11.984;2022-10-31T08:45:30;11.27;;;7.88;;
12912;SDS011;6524;51.368;11.984;2022-10-31T08:50:32;10.43;;;8.18;;
12912;SDS011;6524;51.368;11.984;2022-10-31T08:55:34;10.75;;;8.25;;
12912;SDS011;6524;51.368;11.984;2022-10-31T09:00:35;12.45;;;9.30;;
12912;SDS011;6524;51.368;11.984;2022-10-31T09:05:36;14.35;;;9.68;;
12912;SDS011;6524;51.368;11.984;2022-10-31T09:10:36;14.10;;;9.80;;
12912;SDS011;6524;51.368;11.984;2022-10-31T09:15:37;15.00;;;11.07;;
12912;SDS011;6524;51.368;11.984;2022-10-31T09:20:39;15.88;;;11.73;;
12912;SDS011;6524;51.368;11.984;2022-10-31T09:25:41;15.90;;;12.50;;
12912;SDS011;6524;51.368;11.984;2022-10-31T09:30:42;17.45;;;13.38;;
12912;SDS011;6524;51.368;11.984;2022-10-31T09:35:42;22.17;;;18.60;;
12912;SDS011;6524;51.368;11.984;2022-10-31T09:40:43;28.55;;;21.85;;
12912;SDS011;6524;51.368;11.984;2022-10-31T09:45:55;29.33;;;23.48;;
12912;SDS011;6524;51.368;11.984;2022-10-31T09:51:00;31.70;;;23.55;;
12912;SDS011;6524;51.368;11.984;2022-10-31T09:56:10;33.75;;;23.73;;
12912;SDS011;6524;51.368;11.984;2022-10-31T10:06:31;29.30;;;22.73;;
12912;SDS011;6524;51.368;11.984;2022-10-31T10:11:41;29.17;;;21.77;;
12912;SDS011;6524;51.368;11.984;2022-10-31T10:27:31;27.02;;;20.75;;
12912;SDS011;6524;51.368;11.984;2022-10-31T10:32:50;28.33;;;20.50;;
12912;SDS011;6524;51.368;11.984;2022-10-31T10:37:59;23.42;;;19.55;;
12912;SDS011;6524;51.368;11.984;2022-10-31T10:48:29;27.08;;;21.40;;
12912;SDS011;6524;51.368;11.984;2022-10-31T10:53:43;26.63;;;20.15;;
12912;SDS011;6524;51.368;11.984;2022-10-31T10:59:01;27.00;;;20.38;;
12912;SDS011;6524;51.368;11.984;2022-10-31T11:04:03;25.17;;;20.35;;
12912;SDS011;6524;51.368;11.984;2022-10-31T11:09:15;27.70;;;20.77;;
12912;SDS011;6524;51.368;11.984;2022-10-31T11:14:20;29.42;;;21.38;;
12912;SDS011;6524;51.368;11.984;2022-10-31T11:19:25;27.02;;;21.13;;
12912;SDS011;6524;51.368;11.984;2022-10-31T11:24:28;25.95;;;21.02;;
12912;SDS011;6524;51.368;11.984;2022-10-31T11:29:28;29.58;;;20.42;;
12912;SDS011;6524;51.368;11.984;2022-10-31T11:34:30;29.83;;;21.15;;
12912;SDS011;6524;51.368;11.984;2022-10-31T11:39:42;31.45;;;21.38;;
12912;SDS011;6524;51.368;11.984;2022-10-31T11:44:45;28.92;;;21.33;;
12912;SDS011;6524;51.368;11.984;2022-10-31T11:49:46;29.35;;;21.77;;
12912;SDS011;6524;51.368;11.984;2022-10-31T11:54:56;28.63;;;21.65;;
12912;SDS011;6524;51.368;11.984;2022-10-31T11:59:59;30.13;;;22.33;;
12912;SDS011;6524;51.368;11.984;2022-10-31T12:05:02;33.05;;;22.73;;
12912;SDS011;6524;51.368;11.984;2022-10-31T12:10:11;29.77;;;22.10;;
12912;SDS011;6524;51.368;11.984;2022-10-31T12:25:49;31.55;;;22.30;;
12912;SDS011;6524;51.368;11.984;2022-10-31T12:41:32;34.25;;;24.15;;
12912;SDS011;6524;51.368;11.984;2022-10-31T12:51:40;34.47;;;22.92;;
12912;SDS011;6524;51.368;11.984;2022-10-31T13:02:04;36.40;;;24.70;;
12912;SDS011;6524;51.368;11.984;2022-10-31T13:07:30;36.90;;;24.80;;
12912;SDS011;6524;51.368;11.984;2022-10-31T13:12:41;33.67;;;23.98;;
12912;SDS011;6524;51.368;11.984;2022-10-31T13:17:44;36.10;;;25.98;;
12912;SDS011;6524;51.368;11.984;2022-10-31T13:22:55;35.05;;;24.30;;
12912;SDS011;6524;51.368;11.984;2022-10-31T13:28:02;34.28;;;24.08;;
12912;SDS011;6524;51.368;11.984;2022-10-31T13:33:08;36.05;;;24.38;;
12912;SDS011;6524;51.368;11.984;2022-10-31T13:54:31;38.75;;;25.73;;
12912;SDS011;6524;51.368;11.984;2022-10-31T13:59:34;36.53;;;25.23;;
12912;SDS011;6524;51.368;11.984;2022-10-31T14:04:38;38.55;;;24.52;;
12912;SDS011;6524;51.368;11.984;2022-10-31T14:14:48;40.15;;;24.92;;
12912;SDS011;6524;51.368;11.984;2022-10-31T14:20:52;35.92;;;25.05;;
12912;SDS011;6524;51.368;11.984;2022-10-31T14:25:30;41.33;;;25.48;;
12912;SDS011;6524;51.368;11.984;2022-10-31T14:30:35;37.00;;;24.20;;
12912;SDS011;6524;51.368;11.984;2022-10-31T14:35:53;35.50;;;24.02;;
12912;SDS011;6524;51.368;11.984;2022-10-31T14:46:24;40.10;;;24.20;;
12912;SDS011;6524;51.368;11.984;2022-10-31T14:51:39;38.03;;;24.10;;
12912;SDS011;6524;51.368;11.984;2022-10-31T14:56:51;35.40;;;23.77;;
12912;SDS011;6524;51.368;11.984;2022-10-31T15:02:12;37.72;;;24.98;;
12912;SDS011;6524;51.368;11.984;2022-10-31T15:07:15;36.70;;;24.75;;
12912;SDS011;6524;51.368;11.984;2022-10-31T15:12:29;37.60;;;25.15;;
12912;SDS011;6524;51.368;11.984;2022-10-31T15:17:32;38.97;;;24.17;;
12912;SDS011;6524;51.368;11.984;2022-10-31T15:22:32;37.97;;;24.13;;
12912;SDS011;6524;51.368;11.984;2022-10-31T15:27:33;39.05;;;24.65;;
12912;SDS011;6524;51.368;11.984;2022-10-31T15:32:34;35.20;;;23.77;;
12912;SDS011;6524;51.368;11.984;2022-10-31T15:37:34;40.35;;;25.52;;
12912;SDS011;6524;51.368;11.984;2022-10-31T15:42:35;39.38;;;27.10;;
12912;SDS011;6524;51.368;11.984;2022-10-31T15:48:01;39.78;;;25.98;;
12912;SDS011;6524;51.368;11.984;2022-10-31T15:53:23;38.78;;;26.27;;
12912;SDS011;6524;51.368;11.984;2022-10-31T15:58:26;41.13;;;26.50;;
12912;SDS011;6524;51.368;11.984;2022-10-31T16:03:29;40.08;;;26.75;;
12912;SDS011;6524;51.368;11.984;2022-10-31T16:08:33;41.90;;;26.92;;
12912;SDS011;6524;51.368;11.984;2022-10-31T16:13:35;41.00;;;27.63;;
12912;SDS011;6524;51.368;11.984;2022-10-31T16:18:38;42.25;;;26.48;;
12912;SDS011;6524;51.368;11.984;2022-10-31T16:23:45;42.50;;;27.27;;
12912;SDS011;6524;51.368;11.984;2022-10-31T16:28:54;42.55;;;27.25;;
12912;SDS011;6524;51.368;11.984;2022-10-31T16:34:16;45.00;;;29.42;;
12912;SDS011;6524;51.368;11.984;2022-10-31T16:39:19;43.40;;;26.98;;
12912;SDS011;6524;51.368;11.984;2022-10-31T16:44:26;44.45;;;28.35;;
12912;SDS011;6524;51.368;11.984;2022-10-31T16:49:27;45.50;;;29.45;;
12912;SDS011;6524;51.368;11.984;2022-10-31T16:54:28;46.92;;;32.35;;
12912;SDS011;6524;51.368;11.984;2022-10-31T16:59:29;48.22;;;33.10;;
12912;SDS011;6524;51.368;11.984;2022-10-31T17:04:31;54.55;;;37.60;;
12912;SDS011;6524;51.368;11.984;2022-10-31T17:09:31;64.53;;;44.55;;
12912;SDS011;6524;51.368;11.984;2022-10-31T17:14:31;68.35;;;46.40;;
12912;SDS011;6524;51.368;11.984;2022-10-31T17:19:33;66.30;;;45.70;;
12912;SDS011;6524;51.368;11.984;2022-10-31T17:24:34;69.38;;;45.47;;
12912;SDS011;6524;51.368;11.984;2022-10-31T17:29:34;68.70;;;43.40;;
12912;SDS011;6524;51.368;11.984;2022-10-31T17:34:35;58.05;;;39.65;;
12912;SDS011;6524;51.368;11.984;2022-10-31T17:39:35;61.90;;;39.88;;
12912;SDS011;6524;51.368;11.984;2022-10-31T17:44:35;44.90;;;32.88;;
12912;SDS011;6524;51.368;11.984;2022-10-31T17:49:36;46.50;;;31.55;;
12912;SDS011;6524;51.368;11.984;2022-10-31T17:54:36;40.72;;;26.52;;
12912;SDS011;6524;51.368;11.984;2022-10-31T17:59:37;39.65;;;26.20;;
12912;SDS011;6524;51.368;11.984;2022-10-31T18:04:37;43.90;;;29.25;;
12912;SDS011;6524;51.368;11.984;2022-10-31T18:09:39;47.03;;;30.27;;
12912;SDS011;6524;51.368;11.984;2022-10-31T18:14:41;42.37;;;27.10;;
12912;SDS011;6524;51.368;11.984;2022-10-31T18:19:42;39.30;;;23.83;;
12912;SDS011;6524;51.368;11.984;2022-10-31T18:24:42;34.65;;;24.05;;
12912;SDS011;6524;51.368;11.984;2022-10-31T18:29:42;33.53;;;22.70;;
12912;SDS011;6524;51.368;11.984;2022-10-31T18:34:43;37.47;;;26.17;;
12912;SDS011;6524;51.368;11.984;2022-10-31T18:39:43;40.75;;;25.63;;
12912;SDS011;6524;51.368;11.984;2022-10-31T18:44:43;39.83;;;25.20;;
12912;SDS011;6524;51.368;11.984;2022-10-31T18:49:43;39.17;;;25.73;;
12912;SDS011;6524;51.368;11.984;2022-10-31T18:54:44;41.93;;;26.43;;
12912;SDS011;6524;51.368;11.984;2022-10-31T18:59:44;35.92;;;24.98;;
12912;SDS011;6524;51.368;11.984;2022-10-31T19:04:45;37.03;;;25.85;;
12912;SDS011;6524;51.368;11.984;2022-10-31T19:09:45;38.97;;;26.25;;
12912;SDS011;6524;51.368;11.984;2022-10-31T19:14:45;39.63;;;27.47;;
12912;SDS011;6524;51.368;11.984;2022-10-31T19:19:46;48.88;;;31.05;;
12912;SDS011;6524;51.368;11.984;2022-10-31T19:24:47;50.35;;;32.17;;
12912;SDS011;6524;51.368;11.984;2022-10-31T19:29:47;40.55;;;27.60;;
12912;SDS011;6524;51.368;11.984;2022-10-31T19:34:48;34.83;;;25.53;;
12912;SDS011;6524;51.368;11.984;2022-10-31T19:39:48;42.25;;;28.75;;
12912;SDS011;6524;51.368;11.984;2022-10-31T19:44:48;41.80;;;29.17;;
12912;SDS011;6524;51.368;11.984;2022-10-31T19:49:49;41.55;;;28.50;;
12912;SDS011;6524;51.368;11.984;2022-10-31T19:54:49;46.05;;;30.15;;
12912;SDS011;6524;51.368;11.984;2022-10-31T19:59:50;44.95;;;30.02;;
12912;SDS011;6524;51.368;11.984;2022-10-31T20:04:50;42.88;;;29.55;;
12912;SDS011;6524;51.368;11.984;2022-10-31T20:09:50;41.55;;;29.90;;
12912;SDS011;6524;51.368;11.984;2022-10-31T20:14:51;41.72;;;28.23;;
12912;SDS011;6524;51.368;11.984;2022-10-31T20:19:52;40.03;;;27.65;;
12912;SDS011;6524;51.368;11.984;2022-10-31T20:24:52;40.97;;;29.02;;
12912;SDS011;6524;51.368;11.984;2022-10-31T20:29:52;41.10;;;28.33;;
12912;SDS011;6524;51.368;11.984;2022-10-31T20:34:53;40.45;;;28.30;;
12912;SDS011;6524;51.368;11.984;2022-10-31T20:39:53;35.92;;;25.73;;
12912;SDS011;6524;51.368;11.984;2022-10-31T20:44:54;32.95;;;24.23;;
12912;SDS011;6524;51.368;11.984;2022-10-31T20:49:54;40.22;;;28.73;;
12912;SDS011;6524;51.368;11.984;2022-10-31T20:54:54;38.65;;;28.30;;
12912;SDS011;6524;51.368;11.984;2022-10-31T20:59:55;37.83;;;26.70;;
12912;SDS011;6524;51.368;11.984;2022-10-31T21:04:55;36.22;;;26.42;;
12912;SDS011;6524;51.368;11.984;2022-10-31T21:09:55;32.73;;;24.73;;
12912;SDS011;6524;51.368;11.984;2022-10-31T21:14:56;37.33;;;25.85;;
12912;SDS011;6524;51.368;11.984;2022-10-31T21:19:56;35.92;;;26.80;;
12912;SDS011;6524;51.368;11.984;2022-10-31T21:24:56;35.50;;;25.83;;
12912;SDS011;6524;51.368;11.984;2022-10-31T21:29:57;36.47;;;25.85;;
12912;SDS011;6524;51.368;11.984;2022-10-31T21:34:57;30.77;;;24.05;;
12912;SDS011;6524;51.368;11.984;2022-10-31T21:39:57;32.95;;;24.65;;
12912;SDS011;6524;51.368;11.984;2022-10-31T21:44:58;31.75;;;23.25;;
12912;SDS011;6524;51.368;11.984;2022-10-31T21:49:58;32.70;;;23.05;;
12912;SDS011;6524;51.368;11.984;2022-10-31T21:54:58;30.50;;;22.65;;
12912;SDS011;6524;51.368;11.984;2022-10-31T21:59:59;31.08;;;22.15;;
12912;SDS011;6524;51.368;11.984;2022-10-31T22:04:59;27.65;;;22.38;;
12912;SDS011;6524;51.368;11.984;2022-10-31T22:09:59;23.13;;;18.83;;
12912;SDS011;6524;51.368;11.984;2022-10-31T22:15:00;34.83;;;24.85;;
12912;SDS011;6524;51.368;11.984;2022-10-31T22:20:01;36.38;;;25.10;;
12912;SDS011;6524;51.368;11.984;2022-10-31T22:25:01;42.25;;;26.73;;
12912;SDS011;6524;51.368;11.984;2022-10-31T22:30:01;47.73;;;29.63;;
12912;SDS011;6524;51.368;11.984;2022-10-31T22:35:02;43.97;;;29.83;;
12912;SDS011;6524;51.368;11.984;2022-10-31T22:40:03;45.35;;;30.20;;
12912;SDS011;6524;51.368;11.984;2022-10-31T22:45:03;45.65;;;29.45;;
12912;SDS011;6524;51.368;11.984;2022-10-31T22:50:05;45.10;;;29.20;;
12912;SDS011;6524;51.368;11.984;2022-10-31T22:55:05;45.95;;;29.83;;
12912;SDS011;6524;51.368;11.984;2022-10-31T23:00:06;39.97;;;28.88;;
12912;SDS011;6524;51.368;11.984;2022-10-31T23:05:07;41.58;;;28.08;;
12912;SDS011;6524;51.368;11.984;2022-10-31T23:10:08;38.05;;;26.52;;
12912;SDS011;6524;51.368;11.984;2022-10-31T23:15:08;30.83;;;24.85;;
12912;SDS011;6524;51.368;11.984;2022-10-31T23:20:09;37.97;;;24.52;;
12912;SDS011;6524;51.368;11.984;2022-10-31T23:25:09;29.75;;;23.30;;
12912;SDS011;6524;51.368;11.984;2022-10-31T23:30:09;25.58;;;22.02;;
12912;SDS011;6524;51.368;11.984;2022-10-31T23:35:10;33.70;;;24.38;;
12912;SDS011;6524;51.368;11.984;2022-10-31T23:40:10;33.13;;;25.95;;
12912;SDS011;6524;51.368;11.984;2022-10-31T23:45:11;31.20;;;24.75;;
12912;SDS011;6524;51.368;11.984;2022-10-31T23:50:11;27.00;;;22.10;;
12912;SDS011;6524;51.368;11.984;2022-10-31T23:55:12;24.92;;;21.65;;
